createdAt,value
2018-01-19T00:02:02.075Z,92.27
2018-01-19T00:04:30.647Z,92.11
2018-01-19T00:06:59.692Z,92.17
2018-01-19T00:09:27.992Z,92.66
2018-01-19T00:11:56.294Z,93.04
2018-01-19T00:14:25.291Z,93.38
2018-01-19T00:16:53.718Z,93.57
2018-01-19T00:19:22.536Z,93.56
2018-01-19T00:21:50.893Z,93.85
2018-01-19T00:24:20.136Z,94.30
2018-01-19T00:26:48.495Z,94.52
2018-01-19T00:29:16.831Z,94.51
2018-01-19T00:31:45.136Z,94.29
2018-01-19T00:34:13.448Z,94.06
2018-01-19T00:36:41.924Z,93.84
2018-01-19T00:39:10.247Z,93.47
2018-01-19T00:41:38.580Z,92.97
2018-01-19T00:44:07.119Z,92.55
2018-01-19T00:46:36.128Z,92.93
2018-01-19T00:49:04.427Z,93.07
2018-01-19T00:51:32.779Z,93.60
2018-01-19T00:54:01.083Z,93.70
2018-01-19T00:56:29.384Z,93.51
2018-01-19T00:58:57.744Z,93.39
2018-01-19T01:01:26.807Z,93.36
2018-01-19T01:03:55.103Z,93.33
2018-01-19T01:06:23.440Z,93.37
2018-01-19T01:08:51.735Z,92.81
2018-01-19T01:11:20.038Z,92.58
2018-01-19T01:13:48.479Z,92.07
2018-01-19T01:16:16.789Z,91.88
2018-01-19T01:18:45.089Z,91.58
2018-01-19T01:21:13.855Z,91.70
2018-01-19T01:23:42.156Z,91.17
2018-01-19T01:26:11.840Z,90.81
2018-01-19T01:28:40.197Z,90.69
2018-01-19T01:31:08.491Z,90.76
2018-01-19T01:33:36.796Z,90.78
2018-01-19T01:36:05.148Z,91.00
2018-01-19T01:38:33.446Z,91.08
2018-01-19T01:41:02.568Z,91.25
2018-01-19T01:43:30.891Z,91.36
2018-01-19T01:45:59.187Z,90.71
2018-01-19T01:48:27.523Z,88.66
2018-01-19T01:50:55.859Z,88.20
2018-01-19T01:53:25.101Z,88.71
2018-01-19T01:55:53.391Z,87.72
2018-01-19T01:58:21.813Z,88.76
2018-01-19T02:00:50.125Z,87.44
2018-01-19T02:03:18.443Z,87.14
2018-01-19T02:08:21.584Z,86.48
2018-01-19T02:10:49.940Z,86.26
2018-01-19T02:13:18.270Z,86.39
2018-01-19T02:15:46.929Z,86.93
2018-01-19T02:18:15.346Z,87.24
2018-01-19T02:20:43.656Z,86.87
2018-01-19T02:23:11.955Z,86.98
2018-01-19T02:25:40.291Z,87.31
2018-01-19T02:28:08.591Z,87.47
2018-01-19T02:30:36.892Z,86.63
2018-01-19T02:33:06.293Z,86.53
2018-01-19T02:35:34.696Z,87.10
2018-01-19T02:38:03.020Z,87.25
2018-01-19T02:40:31.410Z,88.00
2018-01-19T02:43:00.485Z,88.16
2018-01-19T02:45:28.787Z,88.45
2018-01-19T02:47:57.719Z,88.20
2018-01-19T02:50:26.035Z,88.08
2018-01-19T02:52:54.340Z,88.02
2018-01-19T02:55:22.695Z,88.26
2018-01-19T02:57:51.004Z,87.71
2018-01-19T03:00:19.328Z,87.18
2018-01-19T03:02:47.687Z,86.60
2018-01-19T03:05:15.998Z,87.17
2018-01-19T03:07:44.291Z,87.41
2018-01-19T03:10:12.636Z,87.70
2018-01-19T03:12:40.939Z,87.77
2018-01-19T03:15:09.239Z,87.73
2018-01-19T03:17:37.590Z,88.27
2018-01-19T03:20:05.897Z,88.78
2018-01-19T03:22:34.967Z,88.96
2018-01-19T03:25:03.752Z,89.03
2018-01-19T03:27:32.047Z,89.11
2018-01-19T03:30:00.351Z,88.75
2018-01-19T03:32:29.000Z,88.21
2018-01-19T03:34:57.783Z,88.52
2018-01-19T03:37:26.084Z,88.45
2018-01-19T03:39:55.195Z,87.72
2018-01-19T03:42:23.501Z,87.58
2018-01-19T03:44:51.811Z,88.02
2018-01-19T03:47:20.169Z,88.39
2018-01-19T03:49:48.528Z,88.40
2018-01-19T03:52:17.596Z,88.45
2018-01-19T03:54:46.033Z,88.88
2018-01-19T03:57:14.636Z,89.01
2018-01-19T03:59:43.011Z,89.20
2018-01-19T04:02:11.452Z,88.77
2018-01-19T04:04:39.748Z,88.78
2018-01-19T04:07:08.056Z,87.92
2018-01-19T04:09:37.204Z,88.92
2018-01-19T04:12:05.516Z,89.17
2018-01-19T04:14:33.835Z,89.29
2018-01-19T04:17:02.211Z,89.62
2018-01-19T04:19:30.524Z,89.82
2018-01-19T04:21:58.844Z,90.24
2018-01-19T04:24:27.222Z,90.62
2018-01-19T04:26:56.295Z,91.16
2018-01-19T04:29:25.254Z,91.19
2018-01-19T04:31:53.641Z,91.38
2018-01-19T04:34:22.087Z,91.28
2018-01-19T04:36:50.556Z,91.28
2018-01-19T04:39:19.264Z,91.17
2018-01-19T04:41:47.591Z,91.08
2018-01-19T04:44:15.909Z,91.21
2018-01-19T04:46:44.251Z,91.28
2018-01-19T04:49:12.551Z,91.41
2018-01-19T04:51:40.851Z,91.25
2018-01-19T04:54:09.179Z,91.63
2018-01-19T04:56:37.487Z,91.68
2018-01-19T04:59:06.554Z,92.04
2018-01-19T05:01:34.910Z,91.81
2018-01-19T05:04:03.216Z,91.93
2018-01-19T05:06:31.506Z,91.52
2018-01-19T05:08:59.876Z,91.11
2018-01-19T05:11:28.939Z,90.04
2018-01-19T05:13:57.234Z,88.18
2018-01-19T05:16:25.571Z,86.68
2018-01-19T05:18:54.456Z,86.08
2018-01-19T05:21:22.755Z,86.23
2018-01-19T05:23:51.191Z,87.32
2018-01-19T05:26:20.256Z,87.05
2018-01-19T05:28:49.339Z,87.38
2018-01-19T05:31:17.692Z,87.86
2018-01-19T05:33:45.996Z,88.15
2018-01-19T05:36:14.299Z,88.07
2018-01-19T05:38:42.656Z,87.64
2018-01-19T05:41:10.965Z,87.40
2018-01-19T05:43:40.062Z,87.75
2018-01-19T05:46:09.183Z,87.88
2018-01-19T05:48:37.508Z,88.10
2018-01-19T05:51:05.834Z,86.05
2018-01-19T05:53:34.188Z,84.61
2018-01-19T05:56:03.472Z,82.26
2018-01-19T05:58:32.543Z,82.23
2018-01-19T06:01:00.924Z,83.29
2018-01-19T06:03:29.223Z,84.47
2018-01-19T06:05:57.523Z,83.23
2018-01-19T06:08:25.878Z,83.89
2018-01-19T06:10:54.179Z,83.91
2018-01-19T06:13:23.889Z,83.31
2018-01-19T06:15:52.215Z,83.54
2018-01-19T06:18:20.520Z,83.02
2018-01-19T06:20:48.828Z,81.96
2018-01-19T06:23:17.175Z,80.70
2018-01-19T06:25:45.475Z,80.13
2018-01-19T06:28:14.539Z,78.77
2018-01-19T06:30:43.398Z,76.62
2018-01-19T06:33:12.582Z,77.21
2018-01-19T06:35:41.536Z,79.61
2018-01-19T06:38:10.339Z,79.17
2018-01-19T06:40:38.754Z,78.55
2018-01-19T06:43:07.055Z,77.99
2018-01-19T06:45:35.359Z,78.36
2018-01-19T06:48:03.988Z,77.58
2018-01-19T06:50:32.295Z,77.70
2018-01-19T06:53:01.024Z,78.40
2018-01-19T06:55:29.640Z,78.73
2018-01-19T06:57:58.007Z,78.84
2018-01-19T07:00:26.308Z,78.34
2018-01-19T07:02:54.665Z,79.13
2018-01-19T07:05:22.972Z,79.28
2018-01-19T07:07:51.276Z,78.32
2018-01-19T07:10:20.312Z,78.28
2018-01-19T07:12:48.664Z,77.55
2018-01-19T07:15:17.728Z,79.02
2018-01-19T07:17:46.365Z,78.57
2018-01-19T07:20:20.332Z,78.48
2018-01-19T07:22:50.552Z,77.15
2018-01-19T07:25:19.972Z,78.02
2018-01-19T07:27:49.752Z,77.82
2018-01-19T07:30:18.323Z,77.45
2018-01-19T07:32:48.747Z,77.96
2018-01-19T07:35:19.824Z,77.15
2018-01-19T07:37:51.564Z,76.32
2018-01-19T07:40:26.852Z,76.16
2018-01-19T07:43:03.287Z,77.31
2018-01-19T07:45:34.165Z,77.07
2018-01-19T07:48:04.952Z,76.80
2018-01-19T07:50:37.222Z,76.76
2018-01-19T07:53:05.923Z,77.29
2018-01-19T07:55:34.361Z,77.30
2018-01-19T07:58:06.315Z,77.11
2018-01-19T08:00:37.245Z,77.82
2018-01-19T08:03:08.619Z,77.21
2018-01-19T08:05:37.072Z,77.07
2018-01-19T08:08:06.553Z,77.63
2018-01-19T08:10:35.031Z,77.76
2018-01-19T08:13:04.921Z,76.60
2018-01-19T08:15:33.329Z,77.26
2018-01-19T08:18:02.627Z,76.07
2018-01-19T08:20:31.817Z,76.09
2018-01-19T08:23:01.100Z,77.63
2018-01-19T08:25:32.109Z,76.89
2018-01-19T08:28:03.200Z,76.27
2018-01-19T08:30:32.605Z,74.36
2018-01-19T08:33:03.688Z,74.82
2018-01-19T08:35:32.200Z,73.65
2018-01-19T08:38:01.587Z,73.60
2018-01-19T08:40:29.983Z,74.09
2018-01-19T08:42:59.296Z,73.38
2018-01-19T08:45:29.310Z,74.25
2018-01-19T08:48:04.111Z,73.80
2018-01-19T08:50:36.113Z,74.23
2018-01-19T08:53:05.108Z,74.50
2018-01-19T08:55:34.283Z,73.42
2018-01-19T08:58:02.660Z,72.18
2018-01-19T09:00:31.103Z,71.69
2018-01-19T09:03:00.275Z,70.97
2018-01-19T09:05:33.038Z,70.88
2018-01-19T09:08:03.693Z,70.90
2018-01-19T09:10:33.148Z,71.25
2018-01-19T09:13:04.124Z,70.30
2018-01-19T09:15:36.222Z,70.22
2018-01-19T09:18:04.687Z,72.67
2018-01-19T09:20:36.140Z,71.70
2018-01-19T09:23:07.360Z,73.12
2018-01-19T09:25:37.521Z,71.48
2018-01-19T09:28:06.693Z,72.13
2018-01-19T09:30:36.861Z,72.95
2018-01-19T09:33:07.117Z,70.83
2018-01-19T09:35:35.508Z,69.99
2018-01-19T09:38:06.149Z,70.03
2018-01-19T09:40:34.712Z,70.44
2018-01-19T09:43:03.116Z,70.21
2018-01-19T09:45:33.689Z,71.29
2018-01-19T09:48:05.991Z,72.96
2018-01-19T09:50:35.272Z,72.61
2018-01-19T09:53:05.476Z,73.82
2018-01-19T09:55:37.421Z,72.46
2018-01-19T09:58:07.110Z,72.89
2018-01-19T10:00:39.503Z,71.32
2018-01-19T10:03:07.888Z,71.15
2018-01-19T10:05:37.292Z,69.19
2018-01-19T10:08:06.512Z,69.24
2018-01-19T10:10:35.747Z,68.05
2018-01-19T10:13:04.108Z,67.47
2018-01-19T10:15:32.632Z,67.63
2018-01-19T10:18:01.175Z,66.32
2018-01-19T10:20:29.602Z,66.25
2018-01-19T10:22:58.792Z,67.20
2018-01-19T10:25:29.012Z,69.15
2018-01-19T10:27:58.467Z,66.86
2018-01-19T10:30:28.608Z,65.35
2018-01-19T10:32:58.042Z,65.44
2018-01-19T10:35:27.403Z,66.41
2018-01-19T10:37:55.887Z,65.90
2018-01-19T10:40:25.253Z,67.40
2018-01-19T10:42:55.786Z,66.58
2018-01-19T10:45:26.003Z,66.37
2018-01-19T10:47:55.539Z,65.77
2018-01-19T10:50:23.956Z,65.75
2018-01-19T10:52:56.246Z,66.32
2018-01-19T10:55:24.644Z,65.71
2018-01-19T10:57:55.125Z,67.05
2018-01-19T11:00:27.984Z,65.68
2018-01-19T11:02:56.361Z,64.19
2018-01-19T11:05:28.322Z,64.42
2018-01-19T11:07:57.738Z,64.85
2018-01-19T11:10:28.172Z,63.15
2018-01-19T11:12:56.523Z,65.11
2018-01-19T11:15:26.827Z,65.10
2018-01-19T11:17:57.015Z,62.82
2018-01-19T11:20:26.772Z,63.00
2018-01-19T11:22:56.016Z,63.82
2018-01-19T11:25:25.396Z,63.43
2018-01-19T11:27:53.920Z,62.80
2018-01-19T11:30:22.432Z,61.94
2018-01-19T11:32:52.201Z,61.76
2018-01-19T11:35:22.314Z,62.22
2018-01-19T11:37:53.435Z,62.70
2018-01-19T11:40:21.904Z,63.74
2018-01-19T11:42:50.370Z,65.16
2018-01-19T11:45:19.643Z,65.32
2018-01-19T11:47:48.377Z,66.49
2018-01-19T11:50:18.503Z,66.58
2018-01-19T11:52:47.031Z,67.49
2018-01-19T11:55:15.553Z,66.91
2018-01-19T11:57:52.831Z,67.91
2018-01-19T12:00:21.155Z,67.92
2018-01-19T12:02:53.115Z,67.57
2018-01-19T12:05:24.279Z,67.77
2018-01-19T12:07:57.991Z,66.94
2018-01-19T12:10:28.947Z,67.25
2018-01-19T12:12:58.162Z,67.49
2018-01-19T12:15:27.341Z,66.45
2018-01-19T12:17:58.654Z,66.64
2018-01-19T12:20:27.003Z,66.74
2018-01-19T12:22:56.458Z,66.05
2018-01-19T12:25:27.956Z,66.15
2018-01-19T12:27:59.517Z,65.69
2018-01-19T12:30:29.423Z,65.98
2018-01-19T12:33:00.883Z,67.13
2018-01-19T12:35:30.224Z,66.23
2018-01-19T12:37:58.776Z,66.52
2018-01-19T12:40:27.095Z,66.52
2018-01-19T12:43:01.492Z,66.45
2018-01-19T12:45:30.612Z,66.69
2018-01-19T12:47:59.016Z,66.76
2018-01-19T12:50:29.279Z,66.78
2018-01-19T12:52:59.951Z,67.76
2018-01-19T12:55:29.719Z,67.09
2018-01-19T12:57:58.090Z,66.59
2018-01-19T13:00:28.448Z,64.57
2018-01-19T13:02:58.235Z,64.81
2018-01-19T13:05:26.627Z,64.89
2018-01-19T13:07:55.412Z,64.81
2018-01-19T13:10:26.156Z,64.06
2018-01-19T13:12:56.224Z,61.26
2018-01-19T13:15:24.860Z,61.74
2018-01-19T13:17:54.223Z,59.56
2018-01-19T13:20:25.091Z,59.54
2018-01-19T13:22:56.064Z,60.76
2018-01-19T13:25:25.380Z,62.56
2018-01-19T13:27:54.951Z,62.08
2018-01-19T13:30:24.968Z,62.32
2018-01-19T13:32:54.194Z,62.67
2018-01-19T13:35:26.339Z,61.55
2018-01-19T13:37:56.604Z,60.72
2018-01-19T13:40:27.032Z,60.11
2018-01-19T13:42:58.612Z,61.33
2018-01-19T13:45:27.908Z,62.43
2018-01-19T13:47:56.364Z,61.65
2018-01-19T13:50:25.696Z,61.28
2018-01-19T13:52:56.247Z,60.98
2018-01-19T13:55:26.558Z,59.94
2018-01-19T13:57:56.300Z,60.95
2018-01-19T14:00:25.609Z,61.16
2018-01-19T14:02:54.847Z,61.39
2018-01-19T14:05:26.237Z,61.02
2018-01-19T14:07:54.543Z,62.42
2018-01-19T14:10:23.227Z,62.62
2018-01-19T14:12:51.521Z,62.78
2018-01-19T14:15:19.819Z,64.89
2018-01-19T14:17:48.168Z,65.18
2018-01-19T14:20:16.463Z,65.76
2018-01-19T14:22:44.776Z,65.93
2018-01-19T14:25:13.192Z,67.05
2018-01-19T14:27:41.495Z,67.26
2018-01-19T14:30:10.249Z,66.29
2018-01-19T14:32:38.597Z,67.30
2018-01-19T14:35:07.159Z,66.70
2018-01-19T14:37:35.463Z,66.36
2018-01-19T14:40:03.827Z,66.63
2018-01-19T14:42:32.899Z,66.48
2018-01-19T14:45:01.309Z,66.34
2018-01-19T14:47:29.655Z,66.71
2018-01-19T14:49:57.951Z,67.33
2018-01-19T14:52:26.304Z,66.45
2018-01-19T14:54:55.028Z,68.53
2018-01-19T14:57:23.332Z,67.86
2018-01-19T14:59:51.648Z,68.02
2018-01-19T15:02:20.803Z,67.99
2018-01-19T15:04:49.099Z,69.01
2018-01-19T15:07:17.414Z,69.72
2018-01-19T15:09:45.759Z,70.43
2018-01-19T15:12:14.066Z,71.86
2018-01-19T15:14:42.361Z,72.99
2018-01-19T15:17:11.476Z,72.38
2018-01-19T15:19:39.778Z,72.77
2018-01-19T15:22:08.113Z,73.37
2018-01-19T15:24:36.523Z,73.17
2018-01-19T15:27:05.086Z,75.57
2018-01-19T15:29:33.388Z,76.31
2018-01-19T15:32:01.752Z,77.85
2018-01-19T15:34:30.055Z,79.21
2018-01-19T15:36:58.347Z,78.72
2018-01-19T15:39:27.836Z,78.92
2018-01-19T15:41:56.131Z,79.21
2018-01-19T15:44:24.431Z,78.73
2018-01-19T15:46:52.774Z,78.86
2018-01-19T15:49:21.066Z,79.91
2018-01-19T15:51:50.143Z,79.46
2018-01-19T15:54:18.559Z,80.83
2018-01-19T15:56:46.869Z,80.65
2018-01-19T15:59:16.066Z,80.45
2018-01-19T16:01:44.435Z,81.08
2018-01-19T16:04:12.751Z,81.81
2018-01-19T16:06:41.060Z,82.37
2018-01-19T16:09:09.420Z,84.59
2018-01-19T16:11:37.740Z,84.32
2018-01-19T16:14:06.044Z,84.75
2018-01-19T16:16:34.411Z,85.29
2018-01-19T16:19:03.993Z,87.34
2018-01-19T16:21:32.299Z,88.01
2018-01-19T16:24:00.649Z,88.90
2018-01-19T16:26:28.951Z,89.99
2018-01-19T16:28:57.263Z,89.42
2018-01-19T16:31:25.635Z,89.96
2018-01-19T16:33:53.930Z,90.22
2018-01-19T16:36:22.349Z,91.19
2018-01-19T16:38:50.713Z,91.28
2018-01-19T16:41:19.805Z,91.71
2018-01-19T16:43:48.124Z,91.28
2018-01-19T16:46:16.940Z,91.38
2018-01-19T16:48:45.236Z,91.64
2018-01-19T16:51:14.178Z,91.74
2018-01-19T16:53:42.527Z,92.08
2018-01-19T16:56:10.899Z,91.79
2018-01-19T16:58:39.740Z,91.46
2018-01-19T17:01:08.043Z,91.02
2018-01-19T17:03:36.432Z,91.23
2018-01-19T17:06:06.188Z,91.33
2018-01-19T17:08:34.528Z,91.63
2018-01-19T17:11:02.843Z,92.39
2018-01-19T17:13:31.220Z,92.54
2018-01-19T17:15:59.549Z,92.45
2018-01-19T17:18:27.868Z,92.80
2018-01-19T17:20:56.323Z,93.35
2018-01-19T17:23:28.784Z,93.52
2018-01-19T17:25:59.029Z,93.69
2018-01-19T17:28:28.108Z,94.00
2018-01-19T17:30:56.460Z,94.11
2018-01-19T17:33:26.105Z,94.31
2018-01-19T17:35:54.411Z,94.29
2018-01-19T17:38:22.755Z,94.39
2018-01-19T17:40:51.341Z,94.29
2018-01-19T17:43:19.756Z,93.82
2018-01-19T17:45:49.027Z,93.35
2018-01-19T17:48:17.455Z,93.79
2018-01-19T17:50:45.765Z,94.14
2018-01-19T17:53:14.408Z,94.02
2018-01-19T17:55:42.708Z,93.41
2018-01-19T17:58:11.208Z,93.17
2018-01-19T18:00:39.715Z,93.26
2018-01-19T18:03:08.188Z,93.24
2018-01-19T18:05:36.535Z,93.24
2018-01-19T18:08:04.848Z,93.15
2018-01-19T18:10:34.016Z,93.48
2018-01-19T18:13:02.392Z,93.73
2018-01-19T18:15:31.047Z,93.83
2018-01-19T18:18:00.711Z,93.84
2018-01-19T18:20:29.015Z,94.06
2018-01-19T18:22:58.244Z,94.14
2018-01-19T18:25:26.684Z,94.21
2018-01-19T18:27:55.916Z,94.15
2018-01-19T18:30:24.340Z,94.12
2018-01-19T18:32:53.109Z,93.81
2018-01-19T18:35:21.396Z,93.69
2018-01-19T18:37:50.311Z,93.66
2018-01-19T18:40:18.740Z,93.53
2018-01-19T18:42:47.088Z,93.54
2018-01-19T18:45:15.408Z,93.52
2018-01-19T18:47:44.275Z,93.57
2018-01-19T18:50:12.587Z,93.53
2018-01-19T18:52:40.946Z,93.49
2018-01-19T18:55:09.953Z,93.39
2018-01-19T18:57:38.258Z,93.32
2018-01-19T19:00:06.640Z,93.37
2018-01-19T19:02:35.144Z,93.48
2018-01-19T19:05:04.231Z,93.68
2018-01-19T19:07:33.363Z,93.83
2018-01-19T19:10:01.934Z,93.85
2018-01-19T19:12:30.398Z,93.74
2018-01-19T19:14:58.725Z,93.62
2018-01-19T19:17:27.069Z,93.60
2018-01-19T19:19:56.000Z,93.55
2018-01-19T19:22:24.304Z,93.51
2018-01-19T19:24:52.612Z,93.57
2018-01-19T19:27:21.131Z,93.58
2018-01-19T19:29:49.440Z,93.34
2018-01-19T19:32:17.809Z,93.30
2018-01-19T19:34:46.160Z,93.87
2018-01-19T19:37:14.664Z,94.20
2018-01-19T19:39:42.968Z,94.45
2018-01-19T19:42:11.354Z,94.42
2018-01-19T19:44:39.762Z,94.20
2018-01-19T19:47:08.103Z,94.25
2018-01-19T19:49:36.479Z,94.51
2018-01-19T19:52:05.381Z,95.19
2018-01-19T19:54:33.754Z,95.28
2018-01-19T19:57:02.232Z,95.92
2018-01-19T19:59:30.595Z,96.18
2018-01-19T20:01:59.002Z,96.48
2018-01-19T20:04:27.317Z,96.72
2018-01-19T20:06:55.723Z,97.02
2018-01-19T20:09:24.167Z,96.98
2018-01-19T20:11:52.544Z,96.99
2018-01-19T20:14:21.007Z,96.87
2018-01-19T20:16:49.510Z,96.70
2018-01-19T20:19:17.857Z,96.73
2018-01-19T20:21:46.223Z,96.68
2018-01-19T20:24:14.642Z,96.78
2018-01-19T20:26:43.011Z,96.97
2018-01-19T20:29:11.370Z,96.78
2018-01-19T20:31:40.955Z,96.69
2018-01-19T20:34:09.310Z,96.65
2018-01-19T20:36:37.678Z,96.68
2018-01-19T20:39:06.125Z,96.46
2018-01-19T20:41:34.821Z,96.31
2018-01-19T20:44:03.173Z,96.33
2018-01-19T20:46:31.625Z,96.09
2018-01-19T20:48:59.991Z,95.94
2018-01-19T20:51:29.067Z,95.70
2018-01-19T20:53:57.471Z,95.56
2018-01-19T20:56:26.095Z,95.59
2018-01-19T20:58:55.199Z,95.82
2018-01-19T21:01:23.606Z,95.81
2018-01-19T21:03:51.981Z,95.66
2018-01-19T21:06:20.625Z,95.24
2018-01-19T21:08:49.825Z,94.94
2018-01-19T21:11:18.245Z,94.90
2018-01-19T21:13:46.602Z,94.69
2018-01-19T21:16:15.048Z,94.74
2018-01-19T21:18:43.415Z,94.37
2018-01-19T21:21:11.752Z,94.03
2018-01-19T21:23:40.178Z,94.86
2018-01-19T21:26:08.607Z,95.20
2018-01-19T21:28:36.924Z,95.27
2018-01-19T21:31:05.349Z,95.17
2018-01-19T21:33:33.676Z,95.03
2018-01-19T21:36:01.991Z,94.92
2018-01-19T21:38:31.177Z,95.28
2018-01-19T21:40:59.541Z,95.04
2018-01-19T21:43:27.910Z,94.84
2018-01-19T21:45:56.319Z,94.68
2018-01-19T21:48:24.735Z,94.76
2018-01-19T21:50:53.094Z,95.21
2018-01-19T21:53:22.251Z,95.65
2018-01-19T21:55:50.611Z,95.60
2018-01-19T21:58:19.730Z,95.46
2018-01-19T22:00:48.147Z,95.97
2018-01-19T22:03:17.034Z,96.34
2018-01-19T22:05:45.349Z,96.57
2018-01-19T22:08:14.993Z,96.56
2018-01-19T22:10:43.427Z,96.42
2018-01-19T22:13:11.822Z,96.36
2018-01-19T22:15:40.813Z,96.34
2018-01-19T22:18:09.282Z,96.55
2018-01-19T22:20:37.592Z,96.57
2018-01-19T22:23:05.960Z,96.59
2018-01-19T22:25:34.357Z,96.45
2018-01-19T22:28:02.684Z,96.48
2018-01-19T22:30:31.108Z,96.51
2018-01-19T22:32:59.547Z,96.44
2018-01-19T22:35:28.339Z,96.31
2018-01-19T22:37:56.861Z,96.02
2018-01-19T22:40:26.243Z,95.83
2018-01-19T22:42:55.080Z,95.71
2018-01-19T22:45:23.429Z,95.60
2018-01-19T22:47:51.801Z,95.51
2018-01-19T22:50:20.132Z,95.16
2018-01-19T22:52:49.048Z,95.01
2018-01-19T22:55:17.587Z,94.87
2018-01-19T22:57:46.440Z,94.57
2018-01-19T23:00:22.624Z,94.19
2018-01-19T23:02:50.974Z,94.26
2018-01-19T23:05:19.343Z,94.61
2018-01-19T23:07:48.155Z,94.82
2018-01-19T23:10:16.785Z,95.06
2018-01-19T23:12:45.146Z,95.11
2018-01-19T23:15:13.591Z,95.18
2018-01-19T23:17:41.918Z,95.11
2018-01-19T23:20:10.791Z,94.81
2018-01-19T23:22:39.151Z,94.45
2018-01-19T23:25:07.492Z,94.49
2018-01-19T23:27:36.574Z,94.26
2018-01-19T23:30:05.005Z,94.09
2018-01-19T23:32:43.415Z,93.96
2018-01-19T23:35:22.111Z,93.71
2018-01-19T23:37:50.574Z,93.75
2018-01-19T23:40:18.967Z,93.91
2018-01-19T23:42:47.371Z,93.88
2018-01-19T23:45:15.688Z,94.23
2018-01-19T23:47:44.094Z,94.41
2018-01-19T23:50:12.399Z,94.18
2018-01-19T23:52:40.703Z,94.20
2018-01-19T23:55:09.165Z,94.12
2018-01-19T23:57:37.472Z,93.92
